»·PEaware :: WAT234 KOXR-KSAN

WAT234 :: KOXR-KSAN

FLIGHT INFORMATION

Flight Status: Arrived
Operator: Unknown
More flights by this operator :: More flights under this callsign
Pilot: Eduardo Elias G. (24838)
Aircraft: SOCATA TBM-900
(TBM9)
More flights by this aircraft type
Origin: KOXR Oxnard
United States
Destination: KSAN San Diego Intl-Lindbergh
United States
More flights between these airports :: More routes between these airports
Route: VTU V208 SXC V208 LAX118R CARDI MZB320R MZB
File this flight plan on PilotEdge
Remarks: TEC ROUTE VTUP28
Altitude:
(Current/Filed)
9,000ft
Speed:
(Current/Filed)
215kts
Departed: 01-Aug-20 04:19 PM
Arrived: 01-Aug-20 05:12 PM
Distance/Time
Traveled:
134nm/0:52
Distance/Time
To Go:
Arrived

Flight Plot

Page will automatically refresh every two minutes.


Map Options




Map Legend


Flown Route
Filed Route
Departure Airport
Arrival Airport
Navaid (VOR, NDB)
Fix

Horizontal Profiles

Position Reports

Time Latitude Longitude Heading Altitude Ground
Speed
01-Aug-20 15:18 34.199411 -119.213406 89 33ft 0kts
01-Aug-20 15:19 34.199411 -119.213406 89 33ft 0kts
01-Aug-20 15:20 34.199411 -119.213406 89 33ft 0kts
01-Aug-20 15:21 34.199411 -119.213406 89 33ft 0kts
01-Aug-20 15:22 34.199411 -119.213406 89 33ft 0kts
01-Aug-20 15:23 34.199411 -119.213406 89 33ft 0kts
01-Aug-20 15:24 34.199411 -119.213406 89 33ft 0kts
01-Aug-20 15:31 34.199409 -119.213409 89 33ft 0kts
01-Aug-20 15:32 34.199409 -119.213409 89 33ft 0kts
01-Aug-20 15:33 34.199409 -119.213409 89 33ft 0kts
01-Aug-20 15:34 34.199409 -119.213409 89 33ft 0kts
01-Aug-20 15:35 34.199409 -119.213409 89 33ft 0kts
01-Aug-20 15:36 34.199409 -119.213409 89 33ft 0kts
01-Aug-20 15:37 34.199409 -119.213409 89 33ft 0kts
01-Aug-20 15:38 34.199409 -119.213409 89 33ft 0kts
01-Aug-20 15:39 34.199409 -119.213409 89 33ft 0kts
01-Aug-20 15:41 34.199409 -119.213409 89 33ft 0kts
01-Aug-20 15:42 34.199409 -119.213409 89 33ft 0kts
01-Aug-20 15:43 34.199409 -119.213409 89 33ft 0kts
01-Aug-20 15:44 34.199409 -119.213409 89 33ft 0kts
01-Aug-20 15:45 34.199409 -119.213409 89 33ft 0kts
01-Aug-20 15:46 34.199409 -119.213409 89 33ft 0kts
01-Aug-20 15:47 34.199409 -119.213409 89 33ft 0kts
01-Aug-20 15:48 34.199409 -119.213409 89 33ft 0kts
01-Aug-20 15:49 34.199409 -119.213409 89 33ft 0kts
01-Aug-20 15:50 34.199409 -119.213409 89 33ft 0kts
01-Aug-20 15:51 34.199409 -119.213409 89 33ft 0kts
01-Aug-20 15:52 34.199409 -119.213409 89 33ft 0kts
01-Aug-20 15:53 34.199409 -119.213409 89 33ft 0kts
01-Aug-20 15:54 34.199410 -119.213409 89 33ft 0kts
01-Aug-20 15:55 34.199410 -119.213409 89 33ft 0kts
01-Aug-20 15:56 34.199410 -119.213409 89 33ft 0kts
01-Aug-20 15:56 34.199410 -119.213409 89 33ft 0kts
01-Aug-20 15:58 34.199410 -119.213409 89 33ft 0kts
01-Aug-20 15:59 34.199410 -119.213409 89 33ft 0kts
01-Aug-20 15:59 34.199410 -119.213409 89 33ft 0kts
01-Aug-20 16:00 34.199410 -119.213409 89 33ft 0kts
01-Aug-20 16:01 34.199410 -119.213409 89 33ft 0kts
01-Aug-20 16:03 34.199410 -119.213409 89 33ft 0kts
01-Aug-20 16:03 34.199410 -119.213409 89 33ft 0kts
01-Aug-20 16:04 34.199410 -119.213409 89 33ft 0kts
01-Aug-20 16:05 34.199410 -119.213409 89 33ft 0kts
01-Aug-20 16:06 34.199410 -119.213409 89 33ft 0kts
01-Aug-20 16:07 34.199410 -119.213409 89 33ft 0kts
01-Aug-20 16:08 34.199410 -119.213409 89 33ft 0kts
01-Aug-20 16:09 34.199411 -119.213356 83 33ft 0kts
01-Aug-20 16:10 34.199411 -119.213356 83 33ft 0kts
01-Aug-20 16:11 34.199411 -119.213356 83 33ft 0kts
01-Aug-20 16:12 34.199411 -119.213356 83 33ft 0kts
01-Aug-20 16:13 34.199835 -119.211727 87 33ft 22kts
01-Aug-20 16:14 34.199820 -119.208274 88 36ft 8kts
01-Aug-20 16:15 34.199739 -119.200006 89 42ft 32kts
01-Aug-20 16:16 34.199830 -119.197596 28 42ft 0kts
01-Aug-20 16:17 34.200406 -119.197502 359 42ft 5kts
01-Aug-20 16:18 34.200769 -119.204071 270 44ft 111kts
01-Aug-20 16:19 34.198443 -119.255529 267 1801ft 168kts
01-Aug-20 16:20 34.195795 -119.313165 267 3695ft 179kts
01-Aug-20 16:21 34.192950 -119.376238 267 5036ft 192kts
01-Aug-20 16:22 34.190146 -119.440912 267 6332ft 193kts
01-Aug-20 16:23 34.160975 -119.476004 146 7584ft 216kts
01-Aug-20 16:24 34.138831 -119.406930 124 8900ft 218kts
01-Aug-20 16:25 34.095254 -119.342562 135 9003ft 249kts
01-Aug-20 16:26 34.062616 -119.299887 136 9000ft 254kts
01-Aug-20 16:27 34.013932 -119.236785 137 9002ft 254kts
01-Aug-20 16:28 33.965759 -119.174532 137 9005ft 251kts
01-Aug-20 16:29 33.917810 -119.112678 137 9006ft 249kts
01-Aug-20 16:30 33.869558 -119.050548 137 9000ft 250kts
01-Aug-20 16:31 33.819184 -118.985791 137 9001ft 251kts
01-Aug-20 16:32 33.768286 -118.920479 137 9001ft 251kts
01-Aug-20 16:33 33.717921 -118.855982 136 9014ft 258kts
01-Aug-20 16:34 33.666750 -118.790549 136 9035ft 265kts
01-Aug-20 16:35 33.615115 -118.724644 136 9001ft 267kts
01-Aug-20 16:36 33.564106 -118.659668 136 9010ft 266kts
01-Aug-20 16:37 33.512910 -118.594580 136 9010ft 266kts
01-Aug-20 16:38 33.461754 -118.529665 136 9009ft 266kts
01-Aug-20 16:39 33.411321 -118.465777 136 9010ft 266kts
01-Aug-20 16:40 33.371176 -118.391420 100 9019ft 273kts
01-Aug-20 16:41 33.359629 -118.301602 100 9006ft 273kts
01-Aug-20 16:42 33.347781 -118.211291 101 8997ft 273kts
01-Aug-20 16:43 33.335805 -118.120596 101 8990ft 273kts
01-Aug-20 16:44 33.323731 -118.029665 101 9138ft 270kts
01-Aug-20 16:45 33.311561 -117.938544 101 9124ft 274kts
01-Aug-20 16:46 33.299224 -117.846685 101 9105ft 275kts
01-Aug-20 16:47 33.286760 -117.754547 101 9101ft 275kts
01-Aug-20 16:48 33.272992 -117.662422 102 9101ft 275kts
01-Aug-20 16:49 33.255327 -117.571377 131 9072ft 269kts
01-Aug-20 16:50 33.203521 -117.505716 136 9104ft 267kts
01-Aug-20 16:51 33.150604 -117.439480 136 9106ft 267kts
01-Aug-20 16:52 33.085788 -117.393673 158 9110ft 261kts
01-Aug-20 16:53 33.017351 -117.355647 156 8993ft 266kts
01-Aug-20 16:54 32.949635 -117.318063 156 8991ft 263kts
01-Aug-20 16:55 32.885160 -117.282328 156 7648ft 241kts
01-Aug-20 16:56 32.824405 -117.248735 157 6998ft 231kts
01-Aug-20 16:57 32.786782 -117.191658 101 7003ft 237kts
01-Aug-20 16:58 32.775026 -117.112432 101 6995ft 236kts
01-Aug-20 16:59 32.762517 -117.033845 101 6991ft 233kts
01-Aug-20 17:00 32.749802 -116.958519 101 6988ft 221kts
01-Aug-20 17:01 32.737042 -116.885137 101 6163ft 225kts
01-Aug-20 17:02 32.721089 -116.814357 136 4960ft 207kts
01-Aug-20 17:03 32.670000 -116.810708 204 4978ft 177kts
01-Aug-20 17:04 32.678637 -116.859593 301 5002ft 182kts
01-Aug-20 17:05 32.676797 -116.918523 251 4902ft 192kts
01-Aug-20 17:06 32.681763 -116.977113 286 3951ft 173kts
01-Aug-20 17:07 32.695392 -117.032729 286 2662ft 151kts
01-Aug-20 17:08 32.708914 -117.088346 286 1902ft 179kts
01-Aug-20 17:09 32.720022 -117.133894 286 1056ft 118kts
01-Aug-20 17:10 32.729371 -117.172528 284 225ft 119kts
01-Aug-20 17:11 32.735266 -117.197224 269 13ft 29kts
01-Aug-20 17:12 32.734834 -117.198430 162 13ft 0kts
01-Aug-20 17:13 32.734632 -117.198253 128 13ft 5kts
01-Aug-20 17:14 32.733170 -117.192352 101 16ft 9kts
01-Aug-20 17:15 32.733164 -117.191759 49 16ft 0kts
01-Aug-20 17:16 32.733164 -117.191759 49 16ft 0kts

Navigation Log

Ident Type
Flight plan parsing failed, navigation log unavailable